Time;durP1;ratioP1;P1;durP2;ratioP2;P2;SDS_P1;SDS_P2;PMS_P1;PMS_P2;Temp;Humidity;BMP_temperature;BMP_pressure;BME280_temperature;BME280_humidity;BME280_pressure;Samples;Min_cycle;Max_cycle;Signal;HPM_P1;HPM_P2
2022/06/26 00:01:32;;;;;;;6.38;1.67;;;21.60;60.80;;;;;;5028596;28;20036;-61
2022/06/26 00:03:58;;;;;;;4.85;1.30;;;21.60;60.90;;;;;;5028937;28;20025;-61
2022/06/26 00:06:24;;;;;;;4.70;1.50;;;21.60;60.80;;;;;;5027747;28;20064;-61
2022/06/26 00:08:50;;;;;;;5.38;1.35;;;21.60;60.80;;;;;;5027816;28;20436;-61
2022/06/26 00:11:16;;;;;;;6.60;1.25;;;21.60;60.90;;;;;;5027955;28;20108;-61
2022/06/26 00:13:41;;;;;;;7.32;1.73;;;21.60;60.90;;;;;;5025753;28;20476;-61
2022/06/26 00:16:07;;;;;;;6.85;1.25;;;21.60;60.80;;;;;;5027540;28;20048;-61
2022/06/26 00:18:33;;;;;;;7.55;1.50;;;21.60;60.90;;;;;;5029119;28;20036;-61
2022/06/26 00:20:58;;;;;;;7.15;1.40;;;21.50;60.80;;;;;;5026449;28;20516;-61
2022/06/26 00:23:24;;;;;;;8.02;1.60;;;21.50;60.80;;;;;;5027096;28;20033;-61
2022/06/26 00:25:50;;;;;;;7.57;1.55;;;21.50;60.80;;;;;;5026438;28;20033;-61
2022/06/26 00:28:15;;;;;;;6.85;1.50;;;21.50;60.80;;;;;;5026690;28;20026;-61
2022/06/26 00:30:41;;;;;;;4.28;1.30;;;21.50;60.90;;;;;;5028544;28;20026;-61
2022/06/26 00:33:06;;;;;;;6.30;1.38;;;21.50;60.90;;;;;;5027047;28;20033;-61
2022/06/26 00:35:32;;;;;;;5.65;1.38;;;21.50;60.90;;;;;;5026509;28;20037;-61
2022/06/26 00:37:58;;;;;;;9.55;1.42;;;21.50;61.00;;;;;;5027552;28;20026;-61
2022/06/26 00:40:25;;;;;;;5.45;1.27;;;21.50;61.00;;;;;;5027725;28;20029;-61
2022/06/26 00:42:50;;;;;;;5.55;1.42;;;21.40;60.90;;;;;;5028655;28;20025;-61
2022/06/26 00:45:16;;;;;;;5.15;1.50;;;21.40;60.90;;;;;;5031035;28;20052;-61
2022/06/26 00:47:42;;;;;;;5.55;1.38;;;21.40;60.90;;;;;;5029983;28;20021;-61
2022/06/26 00:50:08;;;;;;;5.10;1.33;;;21.40;60.90;;;;;;5032605;28;20025;-61
2022/06/26 00:52:34;;;;;;;5.15;1.50;;;21.40;60.90;;;;;;5026923;28;20025;-61
2022/06/26 00:55:00;;;;;;;5.90;1.63;;;21.40;60.90;;;;;;5027966;28;20041;-61
2022/06/26 00:57:26;;;;;;;5.03;1.23;;;21.40;60.90;;;;;;5007943;28;20033;-61
2022/06/26 00:59:51;;;;;;;4.72;1.40;;;21.40;61.00;;;;;;5028929;28;20048;-61
2022/06/26 01:02:18;;;;;;;4.75;1.15;;;21.40;61.00;;;;;;5025963;28;20025;-61
2022/06/26 01:04:43;;;;;;;5.55;1.30;;;21.40;61.00;;;;;;5027427;28;20029;-61
2022/06/26 01:07:10;;;;;;;6.65;1.35;;;21.40;61.00;;;;;;5024570;28;20026;-61
2022/06/26 01:09:35;;;;;;;5.55;1.27;;;21.40;61.00;;;;;;5010539;28;20045;-61
2022/06/26 01:12:01;;;;;;;4.70;1.38;;;21.30;60.90;;;;;;5030124;28;20044;-61
2022/06/26 01:14:27;;;;;;;6.13;1.33;;;21.30;61.00;;;;;;5008351;28;20417;-61
2022/06/26 01:16:52;;;;;;;4.40;1.30;;;21.30;61.00;;;;;;5009259;28;20018;-61
2022/06/26 01:19:19;;;;;;;2.78;1.10;;;21.30;61.00;;;;;;5026399;28;20091;-61
2022/06/26 01:21:44;;;;;;;4.43;1.25;;;21.40;61.10;;;;;;5029906;28;20021;-61
2022/06/26 01:24:10;;;;;;;6.88;1.30;;;21.30;61.00;;;;;;5028568;28;20037;-61
2022/06/26 01:26:36;;;;;;;4.55;1.40;;;21.30;61.00;;;;;;5029816;28;20421;-61
2022/06/26 01:29:02;;;;;;;4.65;1.30;;;21.30;61.00;;;;;;5027992;28;20026;-61
2022/06/26 01:31:28;;;;;;;5.28;1.30;;;21.30;61.00;;;;;;5026243;28;20018;-61
2022/06/26 01:33:54;;;;;;;4.47;1.35;;;21.30;61.00;;;;;;5027990;28;20034;-61
2022/06/26 01:36:19;;;;;;;5.25;1.40;;;21.30;61.00;;;;;;5027564;28;20033;-61
2022/06/26 01:38:45;;;;;;;5.55;1.38;;;21.30;61.10;;;;;;5029611;28;20048;-61
2022/06/26 01:41:11;;;;;;;3.85;1.13;;;21.20;61.00;;;;;;5028947;28;20032;-61
2022/06/26 01:43:37;;;;;;;4.18;1.30;;;21.20;60.90;;;;;;5028717;28;20064;-61
2022/06/26 01:46:04;;;;;;;5.03;1.25;;;21.20;61.10;;;;;;5046719;28;20198;-61
2022/06/26 01:48:30;;;;;;;4.35;1.23;;;21.20;61.00;;;;;;5047213;28;20036;-61
2022/06/26 01:50:57;;;;;;;3.83;1.20;;;21.20;61.00;;;;;;5045133;28;20490;-61
2022/06/26 01:53:22;;;;;;;7.15;1.30;;;21.20;61.00;;;;;;5046950;28;20123;-61
2022/06/26 01:55:48;;;;;;;3.22;1.20;;;21.20;61.10;;;;;;5044931;28;20680;-61
2022/06/26 01:58:14;;;;;;;3.33;1.10;;;21.20;61.10;;;;;;5046719;28;20036;-61
2022/06/26 02:00:41;;;;;;;6.30;1.30;;;21.20;61.10;;;;;;5047240;28;20027;-61
2022/06/26 02:03:07;;;;;;;5.55;1.27;;;21.20;61.10;;;;;;5045867;28;20397;-62
2022/06/26 02:05:32;;;;;;;4.93;1.13;;;21.20;61.10;;;;;;5044951;28;20035;-62
2022/06/26 02:07:58;;;;;;;5.68;1.30;;;21.10;61.00;;;;;;5045667;28;20103;-61
2022/06/26 02:15:55;;;;;;;4.30;1.10;;;21.10;61.00;;;;;;5046294;28;20055;-62
2022/06/26 02:18:21;;;;;;;4.20;0.98;;;21.10;62.00;;;;;;5046750;28;20452;-62
2022/06/26 02:20:47;;;;;;;3.03;0.98;;;21.10;61.00;;;;;;5044555;28;20029;-62
2022/06/26 02:23:13;;;;;;;4.03;1.20;;;21.10;61.10;;;;;;5024520;28;20039;-62
2022/06/26 02:25:40;;;;;;;6.05;1.70;;;21.10;61.00;;;;;;5045421;28;20082;-62
2022/06/26 02:28:06;;;;;;;3.47;1.40;;;21.00;60.90;;;;;;5027883;28;20029;-62
2022/06/26 02:30:31;;;;;;;4.72;1.20;;;21.10;61.00;;;;;;5045826;28;20045;-62
2022/06/26 02:32:59;;;;;;;2.58;1.00;;;21.00;61.00;;;;;;5011497;28;20021;-62
2022/06/26 02:35:26;;;;;;;3.67;1.10;;;21.00;61.00;;;;;;5040951;28;20124;-61
2022/06/26 02:37:52;;;;;;;4.88;1.30;;;21.00;61.00;;;;;;5043649;28;20053;-62
2022/06/26 02:40:19;;;;;;;2.53;1.00;;;21.00;61.00;;;;;;5043547;28;20394;-62
2022/06/26 02:42:45;;;;;;;4.32;1.17;;;21.00;61.00;;;;;;5029645;28;20040;-61
2022/06/26 02:45:11;;;;;;;3.22;1.13;;;21.00;61.00;;;;;;5031312;28;20052;-62
2022/06/26 02:47:36;;;;;;;3.17;1.00;;;21.00;61.00;;;;;;5023925;28;20397;-62
2022/06/26 02:50:03;;;;;;;4.07;1.38;;;21.00;61.00;;;;;;5025665;28;20716;-62
2022/06/26 02:52:29;;;;;;;5.25;1.35;;;21.00;60.90;;;;;;5025181;28;20452;-62
2022/06/26 02:54:56;;;;;;;5.38;1.25;;;21.00;61.10;;;;;;5024789;28;20065;-62
2022/06/26 02:57:22;;;;;;;3.40;1.10;;;21.00;61.00;;;;;;5009430;28;20405;-62
2022/06/26 02:59:48;;;;;;;4.20;1.60;;;21.00;61.00;;;;;;5005184;28;20029;-62
2022/06/26 03:02:14;;;;;;;3.13;1.10;;;20.90;60.90;;;;;;5025271;28;20033;-62
2022/06/26 03:04:40;;;;;;;4.05;1.15;;;20.90;60.80;;;;;;5025099;28;20025;-62
2022/06/26 03:07:05;;;;;;;4.25;1.27;;;20.90;60.90;;;;;;5024283;28;20033;-62
2022/06/26 03:09:31;;;;;;;6.10;1.52;;;20.90;60.90;;;;;;5024737;28;20021;-62
2022/06/26 03:11:57;;;;;;;4.00;1.10;;;20.90;60.90;;;;;;5024974;28;20628;-62
2022/06/26 03:14:22;;;;;;;2.58;0.95;;;20.90;60.90;;;;;;5023516;28;20052;-62
2022/06/26 03:16:48;;;;;;;5.90;1.30;;;20.90;60.90;;;;;;5024312;28;20480;-62
2022/06/26 03:19:18;;;;;;;5.53;1.08;;;20.90;60.80;;;;;;5022659;28;20529;-62
2022/06/26 03:21:44;;;;;;;4.25;1.00;;;20.90;60.90;;;;;;5021858;28;20026;-62
2022/06/26 03:24:10;;;;;;;4.13;1.00;;;20.90;61.00;;;;;;5027736;28;20037;-62
2022/06/26 03:26:37;;;;;;;3.90;1.00;;;20.80;60.90;;;;;;5003452;28;20033;-62
2022/06/26 03:29:05;;;;;;;3.25;1.20;;;20.80;61.00;;;;;;5005446;28;20104;-62
2022/06/26 03:31:31;;;;;;;3.40;1.10;;;20.90;61.00;;;;;;5027238;28;20021;-62
2022/06/26 03:33:57;;;;;;;4.25;1.10;;;20.80;61.00;;;;;;5008955;28;20140;-62
2022/06/26 03:36:23;;;;;;;3.63;1.00;;;20.80;61.00;;;;;;5026495;28;20553;-62
2022/06/26 03:38:49;;;;;;;2.50;0.80;;;20.80;61.00;;;;;;5024938;28;20080;-62
2022/06/26 03:41:14;;;;;;;4.38;1.00;;;20.80;61.00;;;;;;5026391;28;20472;-61
2022/06/26 03:43:40;;;;;;;4.10;1.00;;;20.80;61.00;;;;;;5026377;28;20037;-62
2022/06/26 03:46:06;;;;;;;6.50;1.30;;;20.80;61.10;;;;;;5046887;28;20025;-62
2022/06/26 03:48:31;;;;;;;5.13;1.10;;;20.80;61.00;;;;;;5047420;28;20024;-62
2022/06/26 03:50:57;;;;;;;3.08;1.27;;;20.80;61.00;;;;;;5046909;28;20025;-62
2022/06/26 03:53:23;;;;;;;2.78;0.95;;;20.80;61.10;;;;;;5045459;28;20184;-62
2022/06/26 03:55:49;;;;;;;3.28;1.10;;;20.70;61.00;;;;;;5046657;28;20040;-62
2022/06/26 03:58:15;;;;;;;2.63;1.00;;;20.70;61.10;;;;;;5044859;28;20033;-61
2022/06/26 04:00:40;;;;;;;3.97;1.13;;;20.70;61.10;;;;;;5047460;28;20543;-62
2022/06/26 04:03:06;;;;;;;3.72;1.15;;;20.70;61.00;;;;;;5046271;28;20025;-62
2022/06/26 04:05:33;;;;;;;3.97;1.17;;;20.70;61.10;;;;;;5045474;28;20044;-62
2022/06/26 04:07:58;;;;;;;3.78;1.20;;;20.70;61.10;;;;;;5045909;28;20104;-62
2022/06/26 04:10:24;;;;;;;4.93;1.30;;;20.70;61.10;;;;;;5042594;28;20111;-62
2022/06/26 04:12:50;;;;;;;2.17;0.90;;;20.70;61.10;;;;;;5046470;28;20086;-62
2022/06/26 04:15:16;;;;;;;4.78;1.20;;;20.70;61.20;;;;;;5045434;28;20580;-62
2022/06/26 04:17:41;;;;;;;3.00;0.95;;;20.60;61.00;;;;;;5046028;28;20029;-62
2022/06/26 04:20:07;;;;;;;4.15;1.23;;;20.60;61.10;;;;;;5046605;28;20029;-62
2022/06/26 04:22:33;;;;;;;3.42;1.00;;;20.60;61.10;;;;;;5045270;28;20014;-61
2022/06/26 04:24:58;;;;;;;4.10;1.10;;;20.60;61.00;;;;;;5047041;28;20024;-61
2022/06/26 04:27:24;;;;;;;4.43;1.10;;;20.70;61.20;;;;;;5048468;28;20029;-61
2022/06/26 04:29:50;;;;;;;3.90;1.30;;;20.60;61.10;;;;;;5046431;28;20604;-62
2022/06/26 04:32:15;;;;;;;4.32;1.13;;;20.60;61.10;;;;;;5044746;28;20500;-61
2022/06/26 04:34:41;;;;;;;3.22;1.17;;;20.60;61.10;;;;;;5045985;28;20508;-61
2022/06/26 04:37:07;;;;;;;1.83;0.90;;;20.60;61.10;;;;;;5045136;28;20079;-62
2022/06/26 04:39:32;;;;;;;3.85;0.93;;;20.60;61.10;;;;;;5047208;28;20048;-61
2022/06/26 04:41:58;;;;;;;2.97;0.90;;;20.60;61.10;;;;;;5045260;28;20057;-61
2022/06/26 04:44:24;;;;;;;2.53;1.00;;;20.60;61.10;;;;;;5045237;28;20071;-61
2022/06/26 04:46:49;;;;;;;2.90;0.98;;;20.60;61.10;;;;;;5045164;28;20091;-62
2022/06/26 04:49:15;;;;;;;4.53;1.10;;;20.60;61.10;;;;;;5045034;28;20052;-61
2022/06/26 04:51:41;;;;;;;4.15;1.00;;;20.50;61.10;;;;;;5044786;28;20569;-62
2022/06/26 04:54:07;;;;;;;2.58;1.00;;;20.50;61.00;;;;;;5046320;28;20508;-62
2022/06/26 04:56:33;;;;;;;4.60;1.10;;;20.50;61.10;;;;;;5045426;28;20116;-61
2022/06/26 04:58:59;;;;;;;4.45;1.05;;;20.50;61.00;;;;;;5045200;28;20109;-62
2022/06/26 05:01:25;;;;;;;2.72;0.95;;;20.50;61.10;;;;;;5045031;28;20281;-61
2022/06/26 05:03:51;;;;;;;3.72;1.02;;;20.50;61.10;;;;;;5046231;28;20036;-62
2022/06/26 05:06:16;;;;;;;4.82;1.02;;;20.50;61.10;;;;;;5044380;28;20028;-62
2022/06/26 05:08:42;;;;;;;2.67;1.15;;;20.50;61.10;;;;;;5044602;28;20029;-61
2022/06/26 05:11:08;;;;;;;3.80;1.10;;;20.50;61.10;;;;;;5044543;28;20035;-62
2022/06/26 05:13:33;;;;;;;4.75;1.25;;;20.50;61.10;;;;;;5046004;28;20079;-62
2022/06/26 05:15:59;;;;;;;2.97;1.00;;;20.50;61.10;;;;;;5060302;28;20087;-61
2022/06/26 05:18:25;;;;;;;3.22;1.02;;;20.50;61.10;;;;;;5046366;28;20033;-61
2022/06/26 05:20:50;;;;;;;2.97;1.00;;;20.40;61.10;;;;;;5042889;28;20036;-63
2022/06/26 05:23:17;;;;;;;3.47;1.00;;;20.40;61.10;;;;;;5044505;28;20033;-61
2022/06/26 05:25:43;;;;;;;3.38;0.98;;;20.40;61.10;;;;;;5044944;28;20055;-61
2022/06/26 05:28:08;;;;;;;2.47;0.98;;;20.40;61.10;;;;;;5043163;28;20021;-62
2022/06/26 05:30:34;;;;;;;2.80;0.95;;;20.50;61.20;;;;;;5040164;28;20063;-61
2022/06/26 05:33:00;;;;;;;3.05;0.90;;;20.40;61.10;;;;;;5044010;28;20405;-62
2022/06/26 05:35:26;;;;;;;3.72;0.90;;;20.40;61.10;;;;;;5043116;28;20106;-61
2022/06/26 05:37:52;;;;;;;4.22;1.15;;;20.40;62.20;;;;;;5044782;28;20020;-61
2022/06/26 05:40:17;;;;;;;3.38;1.00;;;20.40;61.20;;;;;;5043323;28;20040;-62
2022/06/26 05:42:43;;;;;;;3.85;1.05;;;20.40;61.20;;;;;;5045779;28;20028;-62
2022/06/26 05:45:09;;;;;;;3.70;1.20;;;20.40;61.10;;;;;;5038417;28;20103;-62
2022/06/26 05:47:35;;;;;;;5.05;1.08;;;20.40;61.10;;;;;;5040489;28;22418;-62
2022/06/26 05:50:00;;;;;;;3.13;1.02;;;20.40;61.20;;;;;;5044953;28;20040;-62
2022/06/26 05:52:26;;;;;;;6.70;1.50;;;20.40;61.10;;;;;;5045619;28;20507;-62
2022/06/26 05:54:52;;;;;;;3.60;1.00;;;20.40;62.30;;;;;;5042122;28;20068;-62
2022/06/26 05:57:23;;;;;;;4.20;1.10;;;20.40;61.60;;;;;;5046339;28;20021;-61
2022/06/26 05:59:49;;;;;;;3.58;1.00;;;20.40;61.60;;;;;;5045280;28;20027;-62
2022/06/26 06:02:14;;;;;;;4.90;1.25;;;20.40;61.90;;;;;;5044198;28;20051;-61
2022/06/26 06:04:40;;;;;;;4.22;1.00;;;20.40;62.00;;;;;;5045174;28;20573;-61
2022/06/26 06:07:06;;;;;;;6.15;1.08;;;20.40;62.10;;;;;;5044227;28;20508;-61
2022/06/26 06:09:32;;;;;;;3.10;0.90;;;20.40;61.90;;;;;;5061590;28;20553;-61
2022/06/26 06:11:57;;;;;;;5.72;1.10;;;20.40;62.00;;;;;;5058224;28;20108;-62
2022/06/26 06:14:23;;;;;;;5.38;1.20;;;20.40;62.30;;;;;;5046720;28;20021;-61
2022/06/26 06:16:49;;;;;;;4.70;1.08;;;20.40;62.10;;;;;;5045139;28;20032;-62
2022/06/26 06:19:14;;;;;;;6.13;1.40;;;20.40;62.30;;;;;;5044600;28;20059;-62
2022/06/26 06:21:40;;;;;;;4.53;1.33;;;20.40;62.40;;;;;;5045687;28;20029;-62
2022/06/26 06:24:06;;;;;;;4.25;1.38;;;20.40;62.20;;;;;;5044655;28;20070;-61
2022/06/26 06:26:31;;;;;;;3.05;1.00;;;20.40;62.20;;;;;;5042835;28;20043;-62
2022/06/26 06:29:03;;;;;;;6.30;1.38;;;20.40;62.20;;;;;;5042890;28;20048;-61
2022/06/26 06:31:29;;;;;;;5.07;1.10;;;20.40;62.20;;;;;;5043827;28;20031;-61
2022/06/26 06:33:54;;;;;;;4.05;1.17;;;20.40;62.40;;;;;;5044624;28;20521;-62
2022/06/26 06:36:20;;;;;;;5.22;1.05;;;20.40;62.50;;;;;;5046649;28;20036;-62
2022/06/26 06:38:45;;;;;;;7.03;1.38;;;20.40;62.30;;;;;;5044867;28;20025;-61
2022/06/26 06:41:11;;;;;;;3.17;1.10;;;20.40;62.20;;;;;;5045090;28;20033;-61
2022/06/26 06:43:37;;;;;;;5.45;1.13;;;20.40;62.20;;;;;;5043610;28;20029;-61
2022/06/26 06:46:02;;;;;;;4.75;1.00;;;20.40;62.20;;;;;;5045526;28;20120;-61
2022/06/26 06:48:28;;;;;;;4.75;1.23;;;20.40;62.10;;;;;;5044761;28;20504;-61
2022/06/26 06:50:54;;;;;;;5.82;1.10;;;20.40;62.10;;;;;;5044830;28;20082;-62
2022/06/26 06:53:20;;;;;;;4.88;1.13;;;20.40;62.00;;;;;;5042967;28;20116;-61
2022/06/26 06:55:46;;;;;;;3.03;1.10;;;20.40;62.10;;;;;;5042484;28;20417;-61
2022/06/26 06:58:16;;;;;;;4.63;1.10;;;20.40;62.10;;;;;;5044933;28;20033;-62
2022/06/26 07:00:41;;;;;;;4.88;1.20;;;20.40;62.10;;;;;;5061549;28;20036;-62
2022/06/26 07:03:07;;;;;;;4.30;1.10;;;20.40;62.00;;;;;;5039386;28;20048;-61
2022/06/26 07:05:33;;;;;;;3.22;1.20;;;20.40;62.10;;;;;;5044011;28;20048;-62
2022/06/26 07:08:00;;;;;;;3.17;1.10;;;20.40;62.00;;;;;;5046602;28;20036;-61
2022/06/26 07:10:25;;;;;;;4.13;1.02;;;20.40;62.00;;;;;;5045923;28;20033;-60
2022/06/26 07:12:55;;;;;;;4.20;1.00;;;20.40;62.10;;;;;;5047941;28;20167;-60
2022/06/26 07:15:21;;;;;;;3.63;1.00;;;20.50;61.90;;;;;;5047527;28;20040;-60
2022/06/26 07:17:47;;;;;;;2.67;1.02;;;20.50;61.90;;;;;;5046172;28;20029;-60
2022/06/26 07:20:12;;;;;;;6.50;1.10;;;20.50;61.90;;;;;;5048330;28;20060;-60
2022/06/26 07:22:38;;;;;;;4.95;1.10;;;20.50;61.70;;;;;;5048582;28;20025;-60
2022/06/26 07:25:04;;;;;;;4.57;1.17;;;20.60;61.70;;;;;;5048812;28;20071;-59
2022/06/26 07:27:30;;;;;;;6.20;1.55;;;20.50;62.00;;;;;;5047686;28;20930;-60
2022/06/26 07:29:55;;;;;;;8.18;1.73;;;20.60;62.50;;;;;;5035386;28;20037;-59
2022/06/26 07:32:21;;;;;;;6.50;1.30;;;20.60;62.60;;;;;;5043770;28;20583;-59
2022/06/26 07:34:47;;;;;;;5.50;1.20;;;20.60;62.90;;;;;;5044003;28;20033;-59
2022/06/26 07:37:12;;;;;;;8.80;1.42;;;20.60;62.70;;;;;;5047891;28;20032;-59
2022/06/26 07:39:38;;;;;;;7.55;1.50;;;20.60;62.70;;;;;;5048288;28;20029;-59
2022/06/26 07:42:04;;;;;;;5.90;1.20;;;20.60;62.80;;;;;;5046897;28;20047;-60
2022/06/26 07:44:30;;;;;;;7.80;1.40;;;20.70;62.80;;;;;;5045873;28;20045;-60
2022/06/26 07:46:57;;;;;;;10.05;1.80;;;20.60;61.40;;;;;;5046653;28;20025;-60
2022/06/26 07:49:22;;;;;;;7.15;1.60;;;20.60;60.00;;;;;;5047502;28;20090;-60
2022/06/26 07:51:48;;;;;;;11.82;1.88;;;20.60;60.60;;;;;;5049463;28;20466;-60
2022/06/26 07:54:14;;;;;;;7.55;1.55;;;20.50;59.60;;;;;;5046934;28;20024;-60
2022/06/26 07:56:40;;;;;;;8.73;1.60;;;20.50;60.20;;;;;;5048122;28;20032;-60
2022/06/26 07:59:05;;;;;;;11.30;1.63;;;20.50;59.80;;;;;;5045127;28;20393;-60
2022/06/26 08:01:31;;;;;;;9.55;1.60;;;20.50;59.40;;;;;;5045762;28;20089;-60
2022/06/26 08:03:57;;;;;;;8.88;1.80;;;20.40;58.80;;;;;;5049016;28;20021;-60
2022/06/26 08:06:22;;;;;;;12.60;1.92;;;20.40;59.10;;;;;;5048586;28;20037;-60
2022/06/26 08:08:48;;;;;;;13.57;1.83;;;20.40;58.70;;;;;;5042901;28;20027;-60
2022/06/26 08:11:14;;;;;;;9.65;1.63;;;20.50;59.40;;;;;;5046391;28;20114;-60
2022/06/26 08:13:40;;;;;;;12.80;2.03;;;20.50;59.40;;;;;;5043684;28;20024;-60
2022/06/26 08:16:05;;;;;;;13.73;2.15;;;20.50;59.20;;;;;;5047118;28;20052;-60
2022/06/26 08:18:31;;;;;;;12.40;1.80;;;20.50;59.90;;;;;;5047326;28;20028;-60
2022/06/26 08:20:57;;;;;;;13.02;2.13;;;20.60;60.00;;;;;;5044330;28;20474;-60
2022/06/26 08:23:22;;;;;;;12.65;1.98;;;20.50;58.80;;;;;;5044507;28;20021;-60
2022/06/26 08:25:48;;;;;;;7.55;1.50;;;20.60;59.90;;;;;;5047363;28;20029;-60
2022/06/26 08:28:14;;;;;;;9.55;1.92;;;20.60;59.80;;;;;;5046831;28;20199;-60
2022/06/26 08:30:39;;;;;;;8.35;1.70;;;20.60;59.90;;;;;;5047215;28;20430;-60
2022/06/26 08:33:05;;;;;;;8.75;1.77;;;20.60;59.90;;;;;;5047114;28;20024;-60
2022/06/26 08:35:31;;;;;;;11.63;1.90;;;20.60;59.90;;;;;;5046031;28;20444;-60
2022/06/26 08:37:56;;;;;;;9.32;2.00;;;20.70;60.50;;;;;;5045697;28;20503;-59
2022/06/26 08:40:22;;;;;;;9.73;1.80;;;20.60;59.90;;;;;;5047365;28;20488;-60
2022/06/26 08:42:49;;;;;;;12.25;2.15;;;20.70;60.10;;;;;;5047959;28;20554;-60
2022/06/26 08:45:17;;;;;;;11.10;2.00;;;20.70;60.00;;;;;;5043973;28;20060;-60
2022/06/26 08:47:42;;;;;;;14.75;2.00;;;20.70;60.10;;;;;;5046769;28;20021;-60
2022/06/26 08:50:08;;;;;;;11.90;2.00;;;20.70;60.10;;;;;;5043992;28;20036;-60
2022/06/26 08:52:34;;;;;;;12.10;1.88;;;20.70;60.10;;;;;;5047460;28;20029;-59
2022/06/26 08:55:00;;;;;;;9.85;1.52;;;20.60;60.10;;;;;;5046101;28;20390;-60
2022/06/26 08:57:26;;;;;;;8.00;1.60;;;20.60;60.00;;;;;;5030263;28;20021;-59
2022/06/26 08:59:52;;;;;;;12.70;1.63;;;20.70;60.10;;;;;;5061880;28;20035;-60
2022/06/26 09:02:17;;;;;;;14.75;1.75;;;20.70;60.10;;;;;;5045535;28;20017;-60
2022/06/26 09:04:43;;;;;;;10.98;1.73;;;20.70;60.10;;;;;;5046816;28;20052;-60
2022/06/26 09:07:08;;;;;;;10.13;1.67;;;20.70;60.10;;;;;;5045782;28;20399;-60
2022/06/26 09:09:37;;;;;;;8.35;1.60;;;20.70;60.10;;;;;;5048399;28;20161;-60
2022/06/26 09:12:04;;;;;;;7.53;1.50;;;20.70;60.10;;;;;;5044182;28;20032;-60
2022/06/26 09:14:30;;;;;;;8.27;1.92;;;20.70;60.10;;;;;;5045540;28;20036;-60
2022/06/26 09:16:56;;;;;;;8.73;1.75;;;20.70;60.20;;;;;;5043797;28;20021;-60
2022/06/26 09:19:24;;;;;;;9.88;1.80;;;20.70;60.30;;;;;;5045677;28;20112;-60
2022/06/26 09:21:50;;;;;;;9.02;1.67;;;20.70;60.40;;;;;;5045089;28;20032;-60
2022/06/26 09:24:18;;;;;;;8.30;1.80;;;20.80;60.50;;;;;;5044270;28;20063;-60
2022/06/26 09:26:44;;;;;;;9.90;2.65;;;20.80;60.60;;;;;;5047543;28;20024;-60
2022/06/26 09:29:10;;;;;;;10.30;2.50;;;20.80;60.80;;;;;;5039786;28;20029;-60
2022/06/26 09:31:37;;;;;;;9.55;1.95;;;20.80;60.60;;;;;;5044815;28;20036;-60
2022/06/26 09:34:06;;;;;;;11.23;2.03;;;20.90;60.50;;;;;;5044726;28;20024;-60
2022/06/26 09:36:32;;;;;;;8.55;1.60;;;20.90;60.60;;;;;;5046526;28;20463;-60
2022/06/26 09:38:58;;;;;;;8.23;1.70;;;20.90;60.40;;;;;;5044287;28;20025;-60
2022/06/26 09:41:34;;;;;;;11.80;1.85;;;20.70;58.00;;;;;;5043456;28;20055;-60
2022/06/26 09:43:59;;;;;;;11.60;2.05;;;20.60;54.40;;;;;;5042418;28;20410;-60
2022/06/26 09:46:32;;;;;;;11.40;1.80;;;20.60;54.70;;;;;;5044815;28;20086;-60
2022/06/26 09:49:04;;;;;;;8.45;1.60;;;20.60;54.70;;;;;;5061796;28;20437;-60
2022/06/26 09:51:30;;;;;;;7.72;1.63;;;20.60;55.00;;;;;;5040962;28;20040;-60
2022/06/26 09:53:56;;;;;;;8.80;1.60;;;20.60;55.20;;;;;;5026184;28;20071;-60
2022/06/26 09:56:22;;;;;;;8.30;1.67;;;20.60;55.40;;;;;;5026470;28;20124;-60
2022/06/26 09:58:50;;;;;;;9.73;1.45;;;20.50;53.90;;;;;;5046768;28;20124;-60
2022/06/26 10:06:44;;;;;;;9.55;1.50;;;20.50;52.90;;;;;;5043159;28;20028;-60
2022/06/26 10:09:09;;;;;;;8.63;1.65;;;20.50;53.00;;;;;;5042078;28;20037;-60
2022/06/26 10:11:40;;;;;;;6.65;1.63;;;20.50;52.50;;;;;;5043073;28;20231;-60
2022/06/26 10:14:19;;;;;;;7.30;1.20;;;20.50;51.90;;;;;;5040456;28;20021;-60
2022/06/26 10:16:54;;;;;;;9.98;1.50;;;20.50;51.80;;;;;;5044801;28;20021;-59
2022/06/26 10:19:32;;;;;;;7.32;1.58;;;20.60;51.20;;;;;;5046805;28;20029;-59
2022/06/26 10:21:58;;;;;;;8.90;1.63;;;20.50;51.70;;;;;;5040779;28;20738;-60
2022/06/26 10:24:24;;;;;;;8.35;1.48;;;20.60;51.40;;;;;;5043932;28;20033;-60
2022/06/26 10:26:58;;;;;;;8.27;1.88;;;20.50;50.90;;;;;;5042807;28;20029;-60
2022/06/26 10:29:35;;;;;;;7.55;1.45;;;20.50;51.00;;;;;;5039096;28;20033;-60
2022/06/26 10:32:00;;;;;;;9.15;1.60;;;20.50;53.00;;;;;;5042275;28;20044;-60
2022/06/26 10:34:26;;;;;;;8.35;1.70;;;20.60;53.90;;;;;;5047340;28;20037;-60
2022/06/26 10:37:01;;;;;;;6.97;1.30;;;20.50;52.10;;;;;;5041091;28;20326;-60
2022/06/26 10:39:38;;;;;;;7.40;1.20;;;20.60;53.80;;;;;;5046333;28;20025;-60
2022/06/26 10:45:07;;;;;;;9.15;1.73;;;20.70;53.90;;;;;;5039971;28;20041;-60
2022/06/26 10:47:43;;;;;;;8.80;1.70;;;20.70;53.80;;;;;;5037755;28;20045;-60
2022/06/26 10:50:26;;;;;;;10.00;1.55;;;20.80;54.00;;;;;;5039312;28;20044;-60
2022/06/26 10:52:53;;;;;;;6.95;1.30;;;20.80;54.00;;;;;;5038732;28;20029;-60
2022/06/26 10:55:18;;;;;;;9.13;1.50;;;20.80;54.10;;;;;;5041510;28;20452;-60
2022/06/26 10:57:44;;;;;;;12.52;1.75;;;20.80;54.20;;;;;;5042413;28;20021;-60
2022/06/26 11:00:12;;;;;;;8.88;1.40;;;20.80;54.20;;;;;;5025528;28;20068;-60
2022/06/26 11:02:44;;;;;;;6.85;1.23;;;20.80;54.30;;;;;;5028695;28;20018;-60
2022/06/26 11:05:10;;;;;;;7.15;1.42;;;20.80;54.40;;;;;;5028156;28;20087;-60
2022/06/26 11:07:46;;;;;;;7.50;1.83;;;20.80;54.50;;;;;;5025879;28;20502;-60
2022/06/26 11:10:16;;;;;;;8.48;1.45;;;20.80;54.70;;;;;;5027831;28;20049;-60
2022/06/26 11:12:43;;;;;;;7.05;1.67;;;20.80;54.70;;;;;;5027046;28;20029;-60
2022/06/26 11:15:23;;;;;;;7.88;1.55;;;20.80;54.80;;;;;;5027540;28;20033;-60
2022/06/26 11:17:56;;;;;;;8.98;1.40;;;20.90;54.90;;;;;;5027688;28;20509;-60
2022/06/26 11:23:23;;;;;;;6.20;1.50;;;20.90;55.00;;;;;;5037191;28;20043;-60
2022/06/26 11:25:52;;;;;;;13.38;1.63;;;21.00;55.20;;;;;;5037606;28;20033;-60
2022/06/26 11:28:18;;;;;;;9.88;1.63;;;20.90;55.20;;;;;;5029168;28;20039;-60
2022/06/26 11:30:45;;;;;;;9.57;1.60;;;21.00;55.40;;;;;;5040881;28;20025;-60
2022/06/26 11:33:11;;;;;;;8.85;1.52;;;21.00;55.60;;;;;;5037300;28;20124;-60
2022/06/26 11:35:36;;;;;;;8.98;1.70;;;21.00;55.90;;;;;;5037754;28;20446;-60
2022/06/26 11:38:09;;;;;;;8.55;1.40;;;21.00;56.90;;;;;;5038966;28;20036;-60
2022/06/26 11:40:35;;;;;;;10.65;1.88;;;21.00;56.10;;;;;;5036099;28;20033;-60
2022/06/26 11:43:01;;;;;;;8.27;1.70;;;21.00;56.10;;;;;;5039460;28;20032;-60
2022/06/26 11:45:31;;;;;;;7.57;1.30;;;21.10;56.20;;;;;;5002888;28;20085;-60
2022/06/26 11:47:56;;;;;;;8.20;1.42;;;21.10;56.30;;;;;;5036106;28;20053;-60
2022/06/26 11:50:26;;;;;;;8.27;1.73;;;21.10;56.60;;;;;;5018722;28;20557;-60
2022/06/26 11:52:55;;;;;;;11.35;1.80;;;21.10;56.70;;;;;;5039789;28;20132;-61
2022/06/26 11:55:20;;;;;;;8.43;1.67;;;21.10;56.70;;;;;;5036078;28;20036;-60
2022/06/26 11:57:46;;;;;;;9.88;2.10;;;21.00;56.90;;;;;;5035054;28;20157;-60
2022/06/26 12:00:12;;;;;;;10.23;1.98;;;21.10;57.00;;;;;;5025712;28;20108;-60
2022/06/26 12:02:42;;;;;;;9.15;2.10;;;21.10;57.10;;;;;;5026075;28;20037;-60
2022/06/26 12:05:08;;;;;;;8.50;2.03;;;21.10;57.10;;;;;;5023873;28;20029;-60
2022/06/26 12:07:46;;;;;;;9.52;1.98;;;21.00;57.10;;;;;;5025800;28;20033;-60
2022/06/26 12:10:12;;;;;;;9.82;2.05;;;21.10;57.20;;;;;;5025802;28;20470;-60
2022/06/26 12:12:49;;;;;;;9.35;1.52;;;21.10;57.20;;;;;;5027502;28;20096;-60
2022/06/26 12:15:15;;;;;;;9.25;1.40;;;21.10;57.30;;;;;;5026659;28;20021;-60
2022/06/26 12:17:41;;;;;;;10.00;1.60;;;21.10;57.40;;;;;;5023866;28;20561;-60
2022/06/26 12:20:07;;;;;;;10.27;1.80;;;21.10;57.40;;;;;;5025645;28;20068;-60
2022/06/26 12:22:33;;;;;;;9.38;1.88;;;21.10;57.50;;;;;;5026104;28;20021;-60
2022/06/26 12:24:59;;;;;;;9.35;1.80;;;21.10;58.80;;;;;;5028195;28;20025;-60
2022/06/26 12:27:38;;;;;;;10.63;2.00;;;21.10;58.10;;;;;;5026979;28;20030;-60
2022/06/26 12:30:22;;;;;;;7.53;1.45;;;21.10;58.10;;;;;;5025170;28;20033;-60
2022/06/26 12:32:48;;;;;;;8.73;1.50;;;21.20;58.30;;;;;;5024623;28;20064;-61
2022/06/26 12:35:13;;;;;;;8.95;1.70;;;21.20;58.20;;;;;;5026802;28;20312;-60
2022/06/26 12:37:39;;;;;;;8.88;1.58;;;21.20;58.30;;;;;;5026675;28;20505;-61
2022/06/26 12:40:05;;;;;;;7.82;1.63;;;21.20;58.50;;;;;;5022747;28;20572;-60
2022/06/26 12:42:31;;;;;;;7.15;1.80;;;21.20;58.50;;;;;;5028246;28;20030;-60
2022/06/26 12:44:57;;;;;;;6.13;1.70;;;21.20;58.30;;;;;;5023995;28;20456;-61
2022/06/26 12:47:22;;;;;;;7.28;1.52;;;21.20;58.30;;;;;;5026194;28;20492;-60
2022/06/26 12:49:48;;;;;;;8.80;1.75;;;21.20;58.60;;;;;;5025768;28;20064;-60
2022/06/26 12:52:14;;;;;;;6.85;1.65;;;21.20;58.70;;;;;;5022541;28;20037;-60
2022/06/26 12:54:40;;;;;;;6.25;1.58;;;21.20;58.80;;;;;;5023812;28;20104;-60
2022/06/26 12:57:05;;;;;;;10.27;1.80;;;21.20;58.60;;;;;;5025983;28;20038;-61
2022/06/26 12:59:31;;;;;;;8.93;1.50;;;21.30;58.80;;;;;;5026606;28;20080;-60